Pagrindinis puslapis
METAR-TAF:

METAR-TAF

Oro uostai :

Larnaka, Kipras

platuma: 34-53N, ilguma: 033-38E, Aukštis: 2 m

Dabartinis oras

Ataskaita buvo paskelbta 38 minutes, ne 02:30 UTC
Vėjas 4 kt iš Vakarų, svyruoja nuo Pietvakarių ir Šiaurės Vakarų
Temperatūra 19°C
Drėgmė 73%
Slėgis 1013 hPa
Matomumas 10 km arba daugiau
nėra debesų žemiau 1500 m ir nėra kamuolinių lietaus debesų

METAR: LCLK 170230Z 27004KT 230V310 CAVOK 19/14 Q1013 NOSIG

Laikas: 06:08 (03:08 UTC)

Prognozė

Ataskaita buvo paskelbta 3 valandos ir 38 minutes, ne 23:30 UTC
Prognozė galioja nuo 17 metu 00 UTC su 17 metu 24 UTC
Vėjas 6 kt iš Vakarų/Šiaurės Vakarų
Matomumas 10 km arba daugiau
Mažai debesys ne aukštis 2500 ft
Tapsmas
nuo 17 metu 08 UTC su 17 metu 11 UTC
Vėjas 16 kt iš Pietų/Pietvakarių
Tapsmas
nuo 17 metu 16 UTC su 17 metu 18 UTC
Vėjas 6 kt iš Vakarų

TAF: LCLK 162330Z 1700/1724 30006KT 9999 FEW025 BECMG 1708/1711 20016KT BECMG 1716/1718 26006KT

Orai ataskaitas ir orų prognozės (METAR, TAF).

turimą stotys yra geltonos ir raudonos taškus žemėlapyje.

Perkelti pele per norėdami pamatyti stoties vardą.

Tada spustelėkite, norėdami matyti oro stebėjimo ir prognozės.

Norėdami pakeisti žemėlapį: spustelėkite ant žalios mygtukų su juodo kryžiaus žemyn,; žalią mygtuką su brūkšneliu, jei norite nutolinti; arba žalių rodyklių gretimoms žemėlapius.


METAR-TAF: